createdAt,value
2019-02-12T00:00:00.360Z,27.07
2019-02-12T00:02:35.501Z,27.53
2019-02-12T00:05:14.542Z,27.33
2019-02-12T00:07:43.609Z,25.57
2019-02-12T00:10:14.984Z,25.63
2019-02-12T00:12:44.071Z,25.20
2019-02-12T00:15:18.791Z,24.53
2019-02-12T00:17:56.855Z,24.63
2019-02-12T00:20:28.740Z,24.33
2019-02-12T00:36:42.955Z,21.63
2019-02-12T00:39:15.790Z,20.07
2019-02-12T00:41:44.699Z,20.40
2019-02-12T00:49:49.380Z,18.43
2019-02-12T00:52:22.641Z,18.93
2019-02-12T00:55:31.432Z,17.83
2019-02-12T00:58:36.426Z,16.87
2019-02-12T01:01:07.108Z,17.80
2019-02-12T01:03:43.378Z,16.43
2019-02-12T01:06:29.144Z,16.00
2019-02-12T01:08:57.438Z,15.80
2019-02-12T01:11:36.419Z,14.90
2019-02-12T01:14:05.307Z,15.83
2019-02-12T01:16:34.237Z,15.47
2019-02-12T01:19:18.042Z,14.53
2019-02-12T01:21:48.979Z,15.03
2019-02-12T01:24:18.174Z,14.67
2019-02-12T01:26:47.372Z,13.83
2019-02-12T01:32:33.387Z,13.60
2019-02-12T01:35:03.063Z,11.97
2019-02-12T01:37:41.223Z,12.87
2019-02-12T01:40:16.720Z,12.20
2019-02-12T01:42:46.086Z,11.80
2019-02-12T01:45:20.535Z,12.03
2019-02-12T01:47:54.350Z,11.97
2019-02-12T01:50:25.204Z,11.10
2019-02-12T01:52:54.620Z,10.27
2019-02-12T01:55:24.181Z,10.73
2019-02-12T01:58:10.433Z,11.57
2019-02-12T02:00:39.366Z,10.33
2019-02-12T02:03:10.984Z,10.03
2019-02-12T02:05:42.633Z,9.80
2019-02-12T02:08:11.634Z,10.00
2019-02-12T02:10:44.189Z,9.13
2019-02-12T02:13:14.907Z,9.53
2019-02-12T02:16:06.109Z,8.93
2019-02-12T02:19:12.827Z,8.83
2019-02-12T02:21:28.609Z,8.30
2019-02-12T02:24:08.410Z,8.57
2019-02-12T02:26:45.006Z,9.17
2019-02-12T02:29:32.736Z,8.70
2019-02-12T02:32:01.958Z,8.07
2019-02-12T02:34:33.806Z,6.77
2019-02-12T02:40:13.079Z,7.97
2019-02-12T02:42:45.306Z,8.00
2019-02-12T02:45:46.869Z,7.17
2019-02-12T02:48:21.174Z,7.10
2019-02-12T02:50:50.633Z,6.90
2019-02-12T02:53:23.503Z,6.87
2019-02-12T02:55:54.839Z,6.10
2019-02-12T02:58:45.912Z,6.83
2019-02-12T03:01:34.536Z,6.43
2019-02-12T03:04:04.509Z,6.33
2019-02-12T03:06:47.230Z,6.27
2019-02-12T03:09:08.799Z,6.20
2019-02-12T03:11:38.892Z,5.97
2019-02-12T03:17:16.437Z,5.57
2019-02-12T03:19:45.470Z,5.27
2019-02-12T03:22:14.327Z,5.73
2019-02-12T03:27:42.609Z,5.13
2019-02-12T03:30:26.841Z,5.77
2019-02-12T03:32:58.644Z,5.00
2019-02-12T03:36:12.684Z,5.33
2019-02-12T03:38:50.117Z,4.90
2019-02-12T03:41:19.029Z,5.33
2019-02-12T03:43:50.258Z,5.17
2019-02-12T03:46:25.625Z,5.57
2019-02-12T03:49:04.320Z,5.47
2019-02-12T03:51:37.020Z,5.20
2019-02-12T03:54:06.382Z,5.50
2019-02-12T03:56:58.207Z,5.33
2019-02-12T03:59:27.079Z,4.97
2019-02-12T04:01:57.922Z,5.83
2019-02-12T04:04:29.900Z,5.60
2019-02-12T04:06:58.872Z,5.30
2019-02-12T04:09:27.787Z,6.30
2019-02-12T04:11:59.779Z,5.93
2019-02-12T04:14:32.242Z,5.50
2019-02-12T04:17:02.810Z,5.83
2019-02-12T04:19:57.470Z,6.10
2019-02-12T04:25:07.436Z,5.90
2019-02-12T04:27:38.418Z,5.60
2019-02-12T04:30:13.416Z,5.83
2019-02-12T04:33:06.116Z,6.17
2019-02-12T04:35:36.179Z,5.70
2019-02-12T04:38:06.059Z,5.53
2019-02-12T04:40:35.654Z,6.37
2019-02-12T04:43:16.060Z,5.33
2019-02-12T04:45:44.966Z,5.43
2019-02-12T04:48:41.139Z,5.27
2019-02-12T04:51:24.595Z,6.13
2019-02-12T04:53:53.565Z,5.47
2019-02-12T04:56:45.189Z,6.23
2019-02-12T04:59:14.721Z,6.53
2019-02-12T05:01:56.955Z,5.70
2019-02-12T05:04:30.528Z,5.83
2019-02-12T05:07:06.959Z,5.67
2019-02-12T05:09:37.753Z,6.27
2019-02-12T05:12:07.191Z,6.43
2019-02-12T05:14:44.104Z,6.47
2019-02-12T05:17:13.007Z,6.73
2019-02-12T05:19:42.619Z,6.87
2019-02-12T05:22:12.335Z,6.27
2019-02-12T05:24:44.233Z,7.00
2019-02-12T05:27:45.062Z,7.23
2019-02-12T05:30:36.498Z,6.70
2019-02-12T05:33:05.438Z,7.07
2019-02-12T05:35:53.672Z,6.50
2019-02-12T05:41:37.219Z,6.53
2019-02-12T05:44:06.160Z,7.37
2019-02-12T05:46:34.962Z,6.70
2019-02-12T05:49:07.442Z,7.10
2019-02-12T05:51:39.778Z,6.30
2019-02-12T05:54:09.264Z,7.37
2019-02-12T05:56:38.203Z,7.07
2019-02-12T05:59:08.472Z,7.10
2019-02-12T06:01:42.147Z,7.53
2019-02-12T06:04:21.687Z,7.30
2019-02-12T06:06:59.853Z,7.77
2019-02-12T06:09:31.087Z,6.57
2019-02-12T06:12:21.830Z,7.33
2019-02-12T06:14:51.029Z,7.77
2019-02-12T06:17:22.456Z,7.70
2019-02-12T06:20:25.895Z,7.23
2019-02-12T06:23:04.035Z,7.60
2019-02-12T06:25:33.403Z,7.47
2019-02-12T06:28:09.583Z,7.43
2019-02-12T06:30:45.871Z,7.13
2019-02-12T06:33:18.600Z,7.13
2019-02-12T06:35:47.723Z,7.03
2019-02-12T06:38:17.067Z,6.63
2019-02-12T06:40:47.196Z,7.50
2019-02-12T06:43:47.208Z,7.13
2019-02-12T06:46:16.113Z,6.93
2019-02-12T06:48:45.065Z,6.03
2019-02-12T06:51:15.027Z,7.70
2019-02-12T06:53:44.760Z,6.10
2019-02-12T06:56:13.906Z,6.03
2019-02-12T06:58:45.005Z,6.20
2019-02-12T07:01:13.957Z,6.40
2019-02-12T07:04:10.396Z,6.73
2019-02-12T07:07:07.673Z,6.97
2019-02-12T07:10:02.145Z,6.43
2019-02-12T07:13:03.263Z,6.10
2019-02-12T07:15:45.309Z,6.27
2019-02-12T07:18:42.011Z,6.13
2019-02-12T07:21:38.388Z,5.10
2019-02-12T07:25:02.428Z,5.90
2019-02-12T07:28:17.201Z,5.60
2019-02-12T07:31:43.915Z,5.53
2019-02-12T07:34:41.020Z,5.23
2019-02-12T07:37:46.961Z,4.63
2019-02-12T07:41:19.594Z,5.93
2019-02-12T07:44:41.479Z,5.97
2019-02-12T07:51:02.966Z,6.63
2019-02-12T07:54:17.621Z,7.40
2019-02-12T07:57:16.925Z,7.93
2019-02-12T08:00:18.074Z,9.30
2019-02-12T08:03:27.059Z,8.50
2019-02-12T08:06:49.776Z,10.00
2019-02-12T08:10:52.252Z,10.27
2019-02-12T08:13:29.229Z,10.40
2019-02-12T08:16:37.300Z,11.10
2019-02-12T08:19:37.506Z,11.17
2019-02-12T08:22:38.344Z,11.30
2019-02-12T08:25:47.636Z,11.33
2019-02-12T08:28:53.766Z,11.47
2019-02-12T08:32:00.906Z,11.60
2019-02-12T08:34:54.423Z,11.53
2019-02-12T08:40:54.891Z,11.63
2019-02-12T08:44:00.859Z,11.17
2019-02-12T08:46:58.936Z,10.93
2019-02-12T08:49:52.552Z,11.50
2019-02-12T08:52:48.674Z,10.90
2019-02-12T08:55:59.541Z,10.73
2019-02-12T08:58:58.624Z,10.43
2019-02-12T09:02:09.006Z,10.73
2019-02-12T09:05:34.117Z,10.30
2019-02-12T09:08:46.090Z,10.37
2019-02-12T09:11:53.001Z,9.73
2019-02-12T09:15:00.206Z,9.90
2019-02-12T09:18:01.950Z,9.40
2019-02-12T09:21:01.084Z,8.63
2019-02-12T09:24:09.063Z,9.10
2019-02-12T09:27:18.572Z,9.17
2019-02-12T09:30:26.419Z,8.37
2019-02-12T09:33:55.213Z,8.33
2019-02-12T09:37:13.291Z,8.23
2019-02-12T09:40:21.993Z,7.57
2019-02-12T09:43:36.529Z,7.50
2019-02-12T09:47:12.860Z,7.60
2019-02-12T09:50:34.228Z,7.23
2019-02-12T09:53:38.636Z,8.37
2019-02-12T09:56:20.911Z,6.63
2019-02-12T09:59:16.999Z,7.37
2019-02-12T10:02:11.695Z,7.33
2019-02-12T10:05:21.327Z,7.30
2019-02-12T10:08:41.148Z,8.47
2019-02-12T10:11:50.718Z,8.57
2019-02-12T10:14:31.107Z,8.80
2019-02-12T10:17:48.479Z,9.50
2019-02-12T10:20:55.489Z,9.77
2019-02-12T10:24:01.660Z,10.10
2019-02-12T10:26:30.879Z,10.57
2019-02-12T10:32:19.652Z,11.00
2019-02-12T10:35:01.286Z,11.17
2019-02-12T10:37:30.452Z,11.37
2019-02-12T10:40:06.598Z,10.93
2019-02-12T10:42:36.876Z,11.77
2019-02-12T10:45:06.808Z,11.10
2019-02-12T10:47:38.366Z,11.60
2019-02-12T10:50:13.831Z,12.20
2019-02-12T10:52:42.719Z,11.33
2019-02-12T10:55:15.604Z,12.37
2019-02-12T10:57:46.634Z,11.87
2019-02-12T11:00:16.163Z,11.80
2019-02-12T11:02:45.045Z,12.53
2019-02-12T11:05:26.107Z,11.87
2019-02-12T11:07:57.087Z,11.93
2019-02-12T11:10:47.554Z,12.63
2019-02-12T11:13:18.172Z,12.37
2019-02-12T11:16:11.410Z,12.90
2019-02-12T11:18:40.284Z,12.23
2019-02-12T11:21:30.213Z,11.93
2019-02-12T11:23:59.156Z,11.77
2019-02-12T11:26:30.453Z,12.40
2019-02-12T11:29:22.577Z,12.63
2019-02-12T11:31:51.611Z,12.60
2019-02-12T11:34:23.957Z,12.93
2019-02-12T11:36:53.708Z,12.83
2019-02-12T11:39:22.658Z,12.27
2019-02-12T11:41:51.701Z,12.63
2019-02-12T11:44:21.796Z,12.50
2019-02-12T11:47:00.173Z,11.80
2019-02-12T11:49:31.580Z,12.53
2019-02-12T11:52:00.737Z,12.53
2019-02-12T11:54:43.546Z,12.43
2019-02-12T11:57:08.173Z,12.30
2019-02-12T11:59:41.289Z,13.33
2019-02-12T12:02:27.623Z,12.77
2019-02-12T12:04:57.032Z,13.03
2019-02-12T12:07:49.532Z,13.33
2019-02-12T12:10:22.409Z,13.00
2019-02-12T12:13:07.736Z,13.73
2019-02-12T12:15:39.834Z,13.10
2019-02-12T12:18:08.926Z,13.23
2019-02-12T12:20:38.109Z,13.27
2019-02-12T12:23:07.230Z,13.00
2019-02-12T12:25:37.528Z,14.77
2019-02-12T12:28:09.747Z,13.70
2019-02-12T12:30:45.782Z,13.90
2019-02-12T12:33:14.831Z,14.57
2019-02-12T12:35:46.673Z,14.20
2019-02-12T12:38:15.495Z,14.10
2019-02-12T12:40:46.410Z,13.47
2019-02-12T12:43:21.334Z,13.50
2019-02-12T12:45:50.391Z,13.43
2019-02-12T12:48:22.976Z,13.03
2019-02-12T12:50:56.753Z,13.23
2019-02-12T12:53:46.019Z,12.63
2019-02-12T12:56:14.946Z,12.93
2019-02-12T13:01:23.639Z,12.23
2019-02-12T13:03:56.710Z,12.33
2019-02-12T13:07:00.686Z,11.27
2019-02-12T13:09:29.539Z,10.67
2019-02-12T13:12:25.767Z,11.00
2019-02-12T13:15:14.726Z,10.53
2019-02-12T13:17:50.644Z,10.17
2019-02-12T13:20:20.977Z,10.43
2019-02-12T13:22:50.650Z,10.43
2019-02-12T13:28:11.750Z,10.03
2019-02-12T13:30:46.891Z,10.73
2019-02-12T13:33:16.074Z,10.03
2019-02-12T13:36:13.370Z,9.20
2019-02-12T13:38:53.322Z,8.80
2019-02-12T13:41:31.952Z,8.53
2019-02-12T13:44:01.040Z,9.63
2019-02-12T13:46:45.540Z,8.83
2019-02-12T13:49:28.397Z,9.00
2019-02-12T13:51:59.786Z,9.40
2019-02-12T13:54:29.114Z,8.40
2019-02-12T13:57:00.403Z,8.87
2019-02-12T13:59:30.616Z,8.60
2019-02-12T14:01:59.763Z,8.53
2019-02-12T14:04:31.390Z,8.53
2019-02-12T14:07:01.026Z,8.40
2019-02-12T14:09:31.389Z,8.60
2019-02-12T14:12:01.547Z,8.43
2019-02-12T14:14:30.666Z,8.30
2019-02-12T14:16:59.729Z,8.73
2019-02-12T14:19:55.579Z,9.07
2019-02-12T14:22:25.871Z,7.93
2019-02-12T14:25:10.838Z,7.77
2019-02-12T14:27:42.062Z,8.23
2019-02-12T14:30:12.741Z,9.00
2019-02-12T14:33:28.781Z,8.43
2019-02-12T14:35:14.841Z,8.07
2019-02-12T14:41:04.551Z,7.70
2019-02-12T14:43:33.548Z,8.00
2019-02-12T14:46:03.300Z,7.97
2019-02-12T14:48:32.232Z,7.73
2019-02-12T14:51:08.511Z,7.80
2019-02-12T14:53:37.538Z,7.33
2019-02-12T14:56:14.517Z,7.23
2019-02-12T14:58:43.325Z,7.50
2019-02-12T15:01:13.268Z,7.27
2019-02-12T15:03:42.525Z,7.17
2019-02-12T15:06:19.008Z,7.03
2019-02-12T15:08:48.027Z,7.03
2019-02-12T15:11:18.936Z,6.70
2019-02-12T15:13:49.643Z,6.43
2019-02-12T15:16:20.282Z,5.90
2019-02-12T15:19:06.044Z,7.17
2019-02-12T15:21:39.467Z,6.53
2019-02-12T15:24:10.842Z,6.13
2019-02-12T15:26:43.240Z,6.10
2019-02-12T15:29:12.485Z,6.07
2019-02-12T15:31:48.748Z,6.70
2019-02-12T15:34:23.564Z,6.53
2019-02-12T15:36:53.351Z,6.30
2019-02-12T15:39:26.105Z,6.13
2019-02-12T15:42:15.149Z,6.83
2019-02-12T15:44:44.253Z,6.27
2019-02-12T15:47:34.050Z,6.27
2019-02-12T15:50:03.031Z,6.40
2019-02-12T15:53:02.026Z,6.07
2019-02-12T15:55:30.866Z,6.47
2019-02-12T16:00:59.883Z,6.40
2019-02-12T16:03:28.786Z,6.27
2019-02-12T16:06:07.402Z,6.63
2019-02-12T16:08:36.380Z,6.30
2019-02-12T16:11:24.565Z,6.37
2019-02-12T16:14:01.869Z,6.70
2019-02-12T16:16:35.619Z,6.37
2019-02-12T16:19:22.115Z,6.80
2019-02-12T16:21:53.610Z,7.13
2019-02-12T16:24:22.527Z,6.90
2019-02-12T16:26:54.496Z,6.30
2019-02-12T16:29:44.861Z,6.57
2019-02-12T16:32:13.519Z,6.50
2019-02-12T16:34:45.164Z,6.47
2019-02-12T16:37:14.476Z,6.70
2019-02-12T16:39:44.000Z,6.23
2019-02-12T16:42:27.012Z,7.10
2019-02-12T16:44:58.114Z,6.03
2019-02-12T16:50:21.884Z,6.47
2019-02-12T16:52:54.744Z,6.03
2019-02-12T16:59:59.589Z,6.03
2019-02-12T17:00:28.999Z,6.10
2019-02-12T17:09:59.092Z,6.23
2019-02-12T17:11:49.684Z,6.30
2019-02-12T17:14:18.728Z,6.40
2019-02-12T17:16:49.192Z,6.33
2019-02-12T17:19:18.059Z,5.90
2019-02-12T17:21:49.932Z,6.57
2019-02-12T17:24:19.070Z,6.90
2019-02-12T17:32:23.003Z,8.57
2019-02-12T17:34:52.058Z,8.27
2019-02-12T17:37:28.749Z,8.30
2019-02-12T17:39:57.576Z,8.70
2019-02-12T17:42:34.004Z,8.50
2019-02-12T17:45:11.635Z,9.00
2019-02-12T17:47:43.248Z,9.50
2019-02-12T17:50:13.306Z,9.73
2019-02-12T17:52:44.157Z,9.80
2019-02-12T17:55:16.007Z,10.73
2019-02-12T17:57:48.008Z,11.23
2019-02-12T18:00:28.460Z,11.20
2019-02-12T18:05:40.213Z,11.20
2019-02-12T18:08:10.077Z,11.10
2019-02-12T18:10:39.205Z,11.53
2019-02-12T18:13:10.319Z,12.17
2019-02-12T18:15:39.157Z,11.57
2019-02-12T18:18:20.577Z,12.47
2019-02-12T18:20:49.668Z,12.10
2019-02-12T18:23:18.919Z,12.80
2019-02-12T18:26:09.086Z,12.60
2019-02-12T18:28:33.439Z,12.60
2019-02-12T18:31:02.700Z,12.83
2019-02-12T18:33:33.081Z,13.87
2019-02-12T18:39:05.130Z,13.90
2019-02-12T18:41:35.271Z,14.13
2019-02-12T18:44:07.851Z,13.47
2019-02-12T18:46:46.947Z,13.97
2019-02-12T18:54:37.428Z,15.03
2019-02-12T19:06:52.026Z,14.93
2019-02-12T19:09:30.196Z,15.43
2019-02-12T19:12:00.549Z,15.83
2019-02-12T19:14:32.364Z,15.87
2019-02-12T19:19:43.844Z,15.20
2019-02-12T19:22:16.760Z,15.80
2019-02-12T19:24:47.808Z,15.97
2019-02-12T19:27:17.567Z,16.70
2019-02-12T19:29:46.628Z,16.60
2019-02-12T19:32:16.289Z,17.90
2019-02-12T19:34:45.108Z,16.80
2019-02-12T19:37:14.599Z,18.03
2019-02-12T19:39:59.037Z,17.97
2019-02-12T19:42:29.011Z,18.57
2019-02-12T19:45:18.748Z,19.67
2019-02-12T20:01:14.784Z,24.10
2019-02-12T20:03:51.045Z,24.60
2019-02-12T20:06:21.384Z,25.23
2019-02-12T20:12:02.222Z,26.43
2019-02-12T20:14:31.809Z,27.43
2019-02-12T20:17:03.204Z,28.20
2019-02-12T20:19:32.174Z,28.40
2019-02-12T20:22:09.553Z,27.83
2019-02-12T20:24:44.533Z,29.33
2019-02-12T20:27:18.251Z,28.60
2019-02-12T20:30:04.284Z,29.90
2019-02-12T20:32:38.423Z,28.73
2019-02-12T20:35:23.837Z,29.27
2019-02-12T20:37:52.928Z,29.90
2019-02-12T20:40:24.297Z,29.47
2019-02-12T20:42:53.239Z,29.27
2019-02-12T20:45:22.492Z,29.83
2019-02-12T20:47:53.540Z,29.40
2019-02-12T20:50:25.233Z,29.63
2019-02-12T20:53:02.211Z,28.20
2019-02-12T20:55:31.202Z,29.27
2019-02-12T20:58:11.052Z,29.40
2019-02-12T21:00:46.586Z,28.60
2019-02-12T21:03:17.784Z,29.67
2019-02-12T21:05:47.044Z,31.07
2019-02-12T21:08:34.501Z,31.23
2019-02-12T21:11:22.414Z,30.13
2019-02-12T21:14:09.811Z,30.57
2019-02-12T21:16:40.588Z,30.30
2019-02-12T21:19:13.247Z,31.63
2019-02-12T21:21:52.440Z,30.57
2019-02-12T21:27:09.635Z,31.10
2019-02-12T21:30:02.112Z,31.40
2019-02-12T21:32:42.474Z,31.33
2019-02-12T21:35:14.667Z,30.33
2019-02-12T21:37:43.800Z,29.47
2019-02-12T21:40:19.237Z,30.27
2019-02-12T21:42:54.371Z,29.13
2019-02-12T21:45:25.941Z,30.20
2019-02-12T21:48:03.855Z,29.90
2019-02-12T21:50:36.608Z,30.27
2019-02-12T21:53:07.328Z,30.03
2019-02-12T21:55:44.292Z,29.63
2019-02-12T21:58:24.111Z,29.37
2019-02-12T22:00:59.197Z,29.90
2019-02-12T22:03:28.427Z,29.67
2019-02-12T22:08:41.337Z,28.90
2019-02-12T22:11:16.101Z,29.07
2019-02-12T22:14:18.863Z,28.63
2019-02-12T22:19:55.061Z,29.03
2019-02-12T22:22:24.127Z,28.93
2019-02-12T22:25:07.074Z,28.00
2019-02-12T22:27:40.455Z,27.80
2019-02-12T22:30:34.409Z,29.43
2019-02-12T22:33:05.100Z,28.80
2019-02-12T22:35:37.002Z,28.60
2019-02-12T22:38:06.076Z,28.10
2019-02-12T22:40:37.096Z,29.90
2019-02-12T22:43:06.605Z,28.57
2019-02-12T22:45:46.275Z,29.53
2019-02-12T22:48:08.415Z,28.07
2019-02-12T22:50:37.320Z,28.50
2019-02-12T22:53:15.015Z,28.23
2019-02-12T22:55:44.308Z,28.93
2019-02-12T23:01:27.215Z,29.23
2019-02-12T23:03:58.049Z,28.17
2019-02-12T23:06:27.051Z,28.83
2019-02-12T23:08:56.124Z,28.20
2019-02-12T23:11:26.653Z,27.53
2019-02-12T23:13:55.622Z,27.40
2019-02-12T23:16:24.611Z,29.03
2019-02-12T23:19:04.429Z,26.93
2019-02-12T23:21:38.966Z,27.53
2019-02-12T23:24:12.324Z,27.43
2019-02-12T23:26:41.375Z,27.97
2019-02-12T23:29:18.287Z,27.00
2019-02-12T23:31:56.308Z,27.23
2019-02-12T23:34:25.371Z,27.17
2019-02-12T23:37:25.620Z,26.57
2019-02-12T23:39:56.952Z,26.90
2019-02-12T23:42:27.619Z,27.47
2019-02-12T23:44:57.240Z,26.27
2019-02-12T23:47:28.887Z,26.37
2019-02-12T23:50:02.504Z,26.37
2019-02-12T23:52:32.357Z,27.73
2019-02-12T23:55:07.172Z,27.60
2019-02-12T23:57:36.156Z,26.70
